BEL2258 EKCH-EBBR
Flight info
| Callsign | BEL2258 |
|---|---|
| Flight time | N/A |
| Altitude | 32000 |
| Route | NEXEN T503 GIMRU DCT MICOS DCT KEGAB DCT ABAMI Z717 NEREL/N0403F240 T855 AGENI/N0369F180 T855 BATTY |
| Aircraft | B739/M-SDE2E3FGHIRWXY/LB1 |
Departure
| Time | N/A |
|---|---|
| Airport | Copenhagen Kastrup Airport (EKCH) |
Arrival
| Time | 2026-05-04 12:49 |
|---|---|
| Airport | Brussels Airport (EBBR) |
| Time | Latitude | Longitude | Altitude | Speed | Heading |
|---|---|---|---|---|---|
| 2026-05-04 12:36 | 50.74179 | 5.56034 | 10094 ft | 306 kts | 295° |
| 2026-05-04 12:37 | 50.75142 | 5.53020 | 9628 ft | 301 kts | 295° |
| 2026-05-04 12:37 | 50.76072 | 5.50106 | 9323 ft | 289 kts | 295° |
| 2026-05-04 12:37 | 50.76956 | 5.47334 | 9133 ft | 279 kts | 295° |
| 2026-05-04 12:37 | 50.77819 | 5.44621 | 8855 ft | 274 kts | 295° |
| 2026-05-04 12:38 | 50.78674 | 5.41931 | 8627 ft | 273 kts | 295° |
| 2026-05-04 12:38 | 50.79524 | 5.39251 | 8395 ft | 273 kts | 295° |
| 2026-05-04 12:38 | 50.80372 | 5.36577 | 8166 ft | 272 kts | 295° |
| 2026-05-04 12:38 | 50.81219 | 5.33902 | 7941 ft | 272 kts | 295° |
| 2026-05-04 12:39 | 50.82069 | 5.31218 | 7718 ft | 272 kts | 295° |
| 2026-05-04 12:39 | 50.82916 | 5.28539 | 7488 ft | 272 kts | 295° |
| 2026-05-04 12:39 | 50.83763 | 5.25855 | 7272 ft | 273 kts | 295° |
| 2026-05-04 12:39 | 50.84609 | 5.23174 | 7072 ft | 270 kts | 295° |
| 2026-05-04 12:40 | 50.85435 | 5.20554 | 6802 ft | 263 kts | 295° |
| 2026-05-04 12:40 | 50.86251 | 5.17964 | 6297 ft | 264 kts | 295° |
| 2026-05-04 12:40 | 50.87070 | 5.15358 | 5806 ft | 264 kts | 295° |
| 2026-05-04 12:40 | 50.87897 | 5.12790 | 5410 ft | 260 kts | 298° |
| 2026-05-04 12:41 | 50.88849 | 5.10356 | 4959 ft | 259 kts | 302° |
| 2026-05-04 12:41 | 50.89823 | 5.08003 | 4536 ft | 258 kts | 302° |
| 2026-05-04 12:41 | 50.90799 | 5.05633 | 4117 ft | 256 kts | 302° |
| 2026-05-04 12:41 | 50.91755 | 5.03280 | 4050 ft | 251 kts | 301° |
| 2026-05-04 12:42 | 50.92701 | 5.00933 | 4062 ft | 256 kts | 301° |
| 2026-05-04 12:42 | 50.93664 | 4.98538 | 4017 ft | 257 kts | 301° |
| 2026-05-04 12:42 | 50.94587 | 4.96158 | 4027 ft | 254 kts | 299° |
| 2026-05-04 12:42 | 50.95526 | 4.93767 | 4005 ft | 252 kts | 302° |
| 2026-05-04 12:43 | 50.96482 | 4.91455 | 3882 ft | 247 kts | 302° |
| 2026-05-04 12:43 | 50.97400 | 4.89255 | 3787 ft | 234 kts | 302° |
| 2026-05-04 12:43 | 50.98291 | 4.87129 | 3636 ft | 227 kts | 302° |
| 2026-05-04 12:43 | 50.99141 | 4.85098 | 3471 ft | 218 kts | 302° |
| 2026-05-04 12:44 | 50.99871 | 4.83005 | 3026 ft | 219 kts | 284° |
| 2026-05-04 12:44 | 50.99765 | 4.80656 | 2604 ft | 215 kts | 247° |
| 2026-05-04 12:44 | 50.99199 | 4.78506 | 2320 ft | 210 kts | 250° |
| 2026-05-04 12:44 | 50.98718 | 4.76388 | 2118 ft | 200 kts | 248° |
| 2026-05-04 12:45 | 50.98192 | 4.74409 | 2047 ft | 191 kts | 245° |
| 2026-05-04 12:45 | 50.97662 | 4.72537 | 2021 ft | 181 kts | 245° |
| 2026-05-04 12:45 | 50.97146 | 4.70739 | 2039 ft | 180 kts | 245° |
| 2026-05-04 12:45 | 50.96618 | 4.68912 | 2019 ft | 183 kts | 245° |
| 2026-05-04 12:46 | 50.96092 | 4.67080 | 2022 ft | 183 kts | 245° |
| 2026-05-04 12:46 | 50.95564 | 4.65244 | 2030 ft | 181 kts | 245° |
| 2026-05-04 12:46 | 50.95059 | 4.63487 | 2035 ft | 171 kts | 245° |
| 2026-05-04 12:46 | 50.94573 | 4.61750 | 1755 ft | 171 kts | 245° |
| 2026-05-04 12:47 | 50.94084 | 4.60069 | 1518 ft | 166 kts | 245° |
| 2026-05-04 12:47 | 50.93613 | 4.58457 | 1284 ft | 158 kts | 245° |
| 2026-05-04 12:47 | 50.93166 | 4.56920 | 1048 ft | 153 kts | 245° |
| 2026-05-04 12:47 | 50.92732 | 4.55402 | 905 ft | 150 kts | 245° |
| 2026-05-04 12:48 | 50.92285 | 4.53850 | 682 ft | 159 kts | 245° |
| 2026-05-04 12:48 | 50.91819 | 4.52252 | 422 ft | 159 kts | 246° |
| 2026-05-04 12:48 | 50.91362 | 4.50667 | 212 ft | 156 kts | 245° |
| 2026-05-04 12:48 | 50.90923 | 4.49149 | 117 ft | 141 kts | 245° |
| 2026-05-04 12:49 | 50.90604 | 4.48038 | 119 ft | 84 kts | 246° |
| 2026-05-04 12:49 | 50.90409 | 4.47358 | 124 ft | 62 kts | 245° |
| 2026-05-04 12:49 | 50.90253 | 4.46879 | 127 ft | 29 kts | 223° |
| 2026-05-04 12:49 | 50.90132 | 4.46721 | 129 ft | 0 kts | 215° |
| 2026-05-04 12:50 | 50.90127 | 4.46715 | 129 ft | 2 kts | 215° |
| 2026-05-04 12:50 | 50.90107 | 4.46694 | 125 ft | 5 kts | 206° |
| 2026-05-04 12:50 | 50.90067 | 4.46710 | 127 ft | 8 kts | 130° |
| 2026-05-04 12:50 | 50.90070 | 4.46808 | 128 ft | 11 kts | 70° |
| 2026-05-04 12:51 | 50.90109 | 4.46942 | 124 ft | 6 kts | 66° |
| 2026-05-04 12:51 | 50.90116 | 4.46968 | 124 ft | 5 kts | 66° |
| 2026-05-04 12:51 | 50.90119 | 4.46978 | 125 ft | 0 kts | 66° |
| 2026-05-04 12:52 | 50.90120 | 4.46983 | 124 ft | 2 kts | 66° |
| 2026-05-04 12:52 | 50.90133 | 4.47030 | 125 ft | 7 kts | 65° |
| 2026-05-04 12:52 | 50.90161 | 4.47122 | 125 ft | 12 kts | 64° |
| 2026-05-04 12:53 | 50.90172 | 4.47264 | 124 ft | 15 kts | 95° |
| 2026-05-04 12:53 | 50.90175 | 4.47447 | 122 ft | 19 kts | 76° |
| 2026-05-04 12:53 | 50.90235 | 4.47654 | 120 ft | 22 kts | 65° |
| 2026-05-04 12:53 | 50.90301 | 4.47880 | 119 ft | 22 kts | 65° |
| 2026-05-04 12:54 | 50.90365 | 4.48100 | 119 ft | 22 kts | 65° |
| 2026-05-04 12:54 | 50.90377 | 4.48145 | 119 ft | 0 kts | 72° |
| 2026-05-04 12:54 | 50.90377 | 4.48147 | 119 ft | 1 kts | 77° |
| 2026-05-04 12:54 | 50.90375 | 4.48158 | 119 ft | 2 kts | 116° |
| 2026-05-04 12:55 | 50.90362 | 4.48166 | 117 ft | 3 kts | 168° |
| 2026-05-04 12:55 | 50.90333 | 4.48176 | 120 ft | 5 kts | 165° |
| 2026-05-04 12:55 | 50.90303 | 4.48197 | 117 ft | 0 kts | 155° |
| 2026-05-04 12:57 | 50.90302 | 4.48197 | 117 ft | 0 kts | 155° |
| 2026-05-04 12:57 | 50.90298 | 4.48200 | 118 ft | 0 kts | 155° |
| 2026-05-04 12:57 | 50.90296 | 4.48201 | 118 ft | 0 kts | 155° |